BAW245 EGLL-SBGR
Flight info
| Callsign | BAW245 |
|---|---|
| Flight time | N/A |
| Altitude | 34000 |
| Route | GASGU N514 ADKIK DCT JOZMA DCT GAPLI/M085F340 DCT EVBAK DCT TAMEL DCT GONAN DCT 40N017W 35N020W DCT RIPOD/N0510F290 DCT GOBEG/M085F360 DCT BAMUX/N0497F360 DCT TARIM DCT PINRU/N0491F380 UN741 ERUGU UZ61 NAXUN/N0485F400 UZ61 REDAD UZ21 VUNOX |
| Aircraft | A35K/H-SBDE1E2E3GHIJ1J3J4J5J6M1M2P2RWXYZ/LB1D1 |
Departure
| Time | 2026-05-08 05:16 |
|---|---|
| Airport | London Heathrow Airport (EGLL) |
Arrival
| Time | N/A |
|---|---|
| Airport | São Paulo/Guarulhos–Governor André Franco Montoro International Airport (SBGR) |
| Time | Latitude | Longitude | Altitude | Speed | Heading |
|---|---|---|---|---|---|
| 2026-05-08 04:25 | 51.46851 | -0.47732 | 95 ft | 0 kts | 89° |
| 2026-05-08 05:03 | 51.46851 | -0.47757 | 95 ft | 4 kts | 89° |
| 2026-05-08 05:03 | 51.46851 | -0.47799 | 95 ft | 3 kts | 89° |
| 2026-05-08 05:04 | 51.46852 | -0.47834 | 92 ft | 4 kts | 110° |
| 2026-05-08 05:04 | 51.46866 | -0.47864 | 94 ft | 4 kts | 162° |
| 2026-05-08 05:04 | 51.46890 | -0.47868 | 92 ft | 4 kts | 179° |
| 2026-05-08 05:04 | 51.46911 | -0.47868 | 94 ft | 0 kts | 179° |
| 2026-05-08 05:09 | 51.46910 | -0.47868 | 92 ft | 1 kts | 179° |
| 2026-05-08 05:09 | 51.46893 | -0.47868 | 95 ft | 4 kts | 179° |
| 2026-05-08 05:10 | 51.46860 | -0.47867 | 94 ft | 6 kts | 180° |
| 2026-05-08 05:10 | 51.46772 | -0.47900 | 96 ft | 8 kts | 223° |
| 2026-05-08 05:10 | 51.46748 | -0.47981 | 96 ft | 9 kts | 260° |
| 2026-05-08 05:11 | 51.46743 | -0.48087 | 94 ft | 10 kts | 269° |
| 2026-05-08 05:11 | 51.46742 | -0.48205 | 93 ft | 11 kts | 270° |
| 2026-05-08 05:11 | 51.46743 | -0.48337 | 92 ft | 12 kts | 269° |
| 2026-05-08 05:11 | 51.46696 | -0.48444 | 94 ft | 12 kts | 208° |
| 2026-05-08 05:12 | 51.46650 | -0.48454 | 94 ft | 0 kts | 189° |
| 2026-05-08 05:13 | 51.46617 | -0.48461 | 96 ft | 11 kts | 188° |
| 2026-05-08 05:13 | 51.46538 | -0.48468 | 93 ft | 12 kts | 174° |
| 2026-05-08 05:14 | 51.46486 | -0.48380 | 97 ft | 11 kts | 107° |
| 2026-05-08 05:14 | 51.46483 | -0.48332 | 96 ft | 0 kts | 94° |
| 2026-05-08 05:14 | 51.46483 | -0.48331 | 95 ft | 0 kts | 94° |
| 2026-05-08 05:14 | 51.46477 | -0.48057 | 96 ft | 56 kts | 90° |
| 2026-05-08 05:15 | 51.46478 | -0.47139 | 97 ft | 107 kts | 91° |
| 2026-05-08 05:15 | 51.46478 | -0.45938 | 96 ft | 135 kts | 73° |
| 2026-05-08 05:15 | 51.46443 | -0.44462 | 153 ft | 148 kts | 93° |
| 2026-05-08 05:15 | 51.46406 | -0.42919 | 638 ft | 140 kts | 91° |
| 2026-05-08 05:16 | 51.46358 | -0.41271 | 826 ft | 155 kts | 96° |
| 2026-05-08 05:16 | 51.45958 | -0.39648 | 1165 ft | 162 kts | 129° |
| 2026-05-08 05:16 | 51.45073 | -0.38397 | 1400 ft | 179 kts | 145° |
| 2026-05-08 05:16 | 51.43925 | -0.37404 | 1683 ft | 196 kts | 157° |
| 2026-05-08 05:17 | 51.42542 | -0.36850 | 1890 ft | 218 kts | 174° |
| 2026-05-08 05:17 | 51.40962 | -0.37066 | 2166 ft | 237 kts | 194° |
| 2026-05-08 05:17 | 51.39388 | -0.37879 | 2700 ft | 244 kts | 198° |
| 2026-05-08 05:17 | 51.37768 | -0.38741 | 3349 ft | 247 kts | 197° |
| 2026-05-08 05:18 | 51.36110 | -0.39620 | 3963 ft | 250 kts | 199° |
| 2026-05-08 05:18 | 51.34512 | -0.40753 | 4520 ft | 255 kts | 208° |
| 2026-05-08 05:18 | 51.33018 | -0.42322 | 5110 ft | 259 kts | 218° |
| 2026-05-08 05:18 | 51.31687 | -0.44292 | 5714 ft | 263 kts | 227° |
| 2026-05-08 05:19 | 51.30552 | -0.46596 | 6339 ft | 266 kts | 234° |
| 2026-05-08 05:19 | 51.29668 | -0.49183 | 6953 ft | 270 kts | 249° |
| 2026-05-08 05:19 | 51.29132 | -0.52083 | 7620 ft | 273 kts | 255° |
| 2026-05-08 05:19 | 51.28637 | -0.55008 | 8290 ft | 275 kts | 253° |
| 2026-05-08 05:20 | 51.28104 | -0.57992 | 8976 ft | 278 kts | 253° |
| 2026-05-08 05:20 | 51.27552 | -0.60922 | 9599 ft | 280 kts | 252° |
| 2026-05-08 05:20 | 51.26963 | -0.63893 | 10260 ft | 283 kts | 252° |
| 2026-05-08 05:20 | 51.26359 | -0.66959 | 10745 ft | 293 kts | 252° |
| 2026-05-08 05:21 | 51.25769 | -0.69972 | 11247 ft | 300 kts | 252° |
| 2026-05-08 05:21 | 51.25140 | -0.73192 | 11795 ft | 307 kts | 252° |
| 2026-05-08 05:21 | 51.24505 | -0.76439 | 12320 ft | 314 kts | 252° |
| 2026-05-08 05:21 | 51.23842 | -0.79827 | 12828 ft | 322 kts | 252° |
| 2026-05-08 05:22 | 51.23161 | -0.83304 | 13316 ft | 330 kts | 252° |
| 2026-05-08 05:22 | 51.22478 | -0.86783 | 13765 ft | 338 kts | 252° |
| 2026-05-08 05:22 | 51.21767 | -0.90400 | 14210 ft | 346 kts | 252° |
| 2026-05-08 05:22 | 51.21016 | -0.94102 | 14645 ft | 354 kts | 250° |
| 2026-05-08 05:23 | 51.19925 | -0.97640 | 15007 ft | 362 kts | 237° |
| 2026-05-08 05:23 | 51.18459 | -1.01014 | 15329 ft | 373 kts | 233° |
| 2026-05-08 05:23 | 51.16846 | -1.04313 | 15628 ft | 383 kts | 231° |
| 2026-05-08 05:23 | 51.15154 | -1.07636 | 16026 ft | 389 kts | 230° |
| 2026-05-08 05:24 | 51.13446 | -1.10985 | 16492 ft | 394 kts | 231° |
| 2026-05-08 05:24 | 51.11736 | -1.14378 | 16985 ft | 397 kts | 231° |
| 2026-05-08 05:24 | 51.10003 | -1.17860 | 17493 ft | 401 kts | 231° |
| 2026-05-08 05:24 | 51.08286 | -1.21343 | 17989 ft | 405 kts | 231° |
| 2026-05-08 05:25 | 51.06533 | -1.24930 | 18533 ft | 408 kts | 232° |
| 2026-05-08 05:25 | 51.04810 | -1.28453 | 19050 ft | 411 kts | 231° |
| 2026-05-08 05:25 | 51.03031 | -1.32073 | 19571 ft | 415 kts | 231° |
| 2026-05-08 05:25 | 51.01303 | -1.35792 | 20091 ft | 418 kts | 237° |
| 2026-05-08 05:26 | 50.99957 | -1.39828 | 20594 ft | 421 kts | 247° |
| 2026-05-08 05:26 | 50.98998 | -1.44250 | 21098 ft | 425 kts | 252° |
| 2026-05-08 05:26 | 50.98184 | -1.48750 | 21599 ft | 427 kts | 254° |
| 2026-05-08 05:26 | 50.97415 | -1.53314 | 22080 ft | 430 kts | 255° |
| 2026-05-08 05:27 | 50.96653 | -1.57932 | 22553 ft | 433 kts | 255° |
| 2026-05-08 05:27 | 50.95884 | -1.62559 | 23034 ft | 436 kts | 254° |
| 2026-05-08 05:27 | 50.95362 | -1.65669 | 23335 ft | 438 kts | 254° |
| 2026-05-08 05:27 | 50.94294 | -1.71936 | 23926 ft | 442 kts | 254° |
| 2026-05-08 05:28 | 50.93752 | -1.75085 | 24242 ft | 444 kts | 254° |
| 2026-05-08 05:28 | 50.92664 | -1.81364 | 24801 ft | 448 kts | 254° |
| 2026-05-08 05:28 | 50.91834 | -1.86131 | 25211 ft | 451 kts | 253° |
| 2026-05-08 05:28 | 50.91264 | -1.89398 | 25500 ft | 452 kts | 253° |
| 2026-05-08 05:29 | 50.90433 | -1.94149 | 25915 ft | 455 kts | 253° |
| 2026-05-08 05:29 | 50.89300 | -2.00613 | 26412 ft | 459 kts | 253° |
| 2026-05-08 05:29 | 50.88734 | -2.03854 | 26665 ft | 461 kts | 254° |
| 2026-05-08 05:29 | 50.87874 | -2.08768 | 27031 ft | 464 kts | 253° |
| 2026-05-08 05:30 | 50.86989 | -2.13779 | 27410 ft | 466 kts | 253° |
| 2026-05-08 05:30 | 50.86123 | -2.18654 | 27762 ft | 469 kts | 253° |
| 2026-05-08 05:30 | 50.85239 | -2.23615 | 28104 ft | 471 kts | 253° |
| 2026-05-08 05:30 | 50.84346 | -2.28620 | 28438 ft | 473 kts | 253° |
| 2026-05-08 05:31 | 50.83450 | -2.33635 | 28751 ft | 476 kts | 253° |
| 2026-05-08 05:31 | 50.82547 | -2.38676 | 29066 ft | 477 kts | 253° |
| 2026-05-08 05:31 | 50.81641 | -2.43724 | 29365 ft | 479 kts | 253° |
| 2026-05-08 05:31 | 50.80726 | -2.48807 | 29707 ft | 480 kts | 253° |
| 2026-05-08 05:32 | 50.79836 | -2.53912 | 30101 ft | 479 kts | 256° |
| 2026-05-08 05:32 | 50.79175 | -2.58978 | 30439 ft | 479 kts | 258° |
| 2026-05-08 05:32 | 50.78558 | -2.64181 | 30809 ft | 478 kts | 259° |
| 2026-05-08 05:32 | 50.77959 | -2.69341 | 31149 ft | 478 kts | 259° |
| 2026-05-08 05:33 | 50.77365 | -2.74481 | 31484 ft | 477 kts | 259° |
| 2026-05-08 05:33 | 50.76764 | -2.79666 | 31784 ft | 477 kts | 259° |
| 2026-05-08 05:33 | 50.76164 | -2.84809 | 32070 ft | 476 kts | 259° |
| 2026-05-08 05:33 | 50.75562 | -2.89926 | 32351 ft | 475 kts | 259° |
| 2026-05-08 05:34 | 50.74961 | -2.95009 | 32643 ft | 475 kts | 259° |
| 2026-05-08 05:34 | 50.74345 | -3.00186 | 32925 ft | 474 kts | 259° |
| 2026-05-08 05:34 | 50.73733 | -3.05316 | 33186 ft | 474 kts | 259° |
| 2026-05-08 05:34 | 50.73124 | -3.10390 | 33360 ft | 475 kts | 259° |
| 2026-05-08 05:35 | 50.72509 | -3.15506 | 33469 ft | 478 kts | 259° |
| 2026-05-08 05:35 | 50.71886 | -3.20666 | 33574 ft | 481 kts | 259° |
| 2026-05-08 05:35 | 50.71249 | -3.25921 | 33695 ft | 483 kts | 259° |
| 2026-05-08 05:35 | 50.70613 | -3.31143 | 33806 ft | 484 kts | 259° |
| 2026-05-08 05:36 | 50.69976 | -3.36364 | 33908 ft | 486 kts | 259° |
| 2026-05-08 05:36 | 50.68688 | -3.46842 | 34012 ft | 490 kts | 259° |
| 2026-05-08 05:37 | 50.67373 | -3.57455 | 34016 ft | 494 kts | 259° |
| 2026-05-08 05:37 | 50.66052 | -3.68036 | 34013 ft | 495 kts | 259° |
| 2026-05-08 05:38 | 50.64705 | -3.78741 | 34014 ft | 494 kts | 259° |
| 2026-05-08 05:38 | 50.63360 | -3.89351 | 34016 ft | 494 kts | 259° |
| 2026-05-08 05:39 | 50.62000 | -3.99958 | 34024 ft | 494 kts | 258° |
| 2026-05-08 05:39 | 50.60601 | -4.10175 | 34013 ft | 494 kts | 258° |
| 2026-05-08 05:40 | 50.59138 | -4.20642 | 34015 ft | 493 kts | 258° |
| 2026-05-08 05:40 | 50.57670 | -4.31189 | 34010 ft | 493 kts | 258° |
| 2026-05-08 05:41 | 50.56193 | -4.41797 | 34011 ft | 492 kts | 258° |
| 2026-05-08 05:41 | 50.54733 | -4.52208 | 34004 ft | 492 kts | 258° |
| 2026-05-08 05:42 | 50.53246 | -4.62737 | 33999 ft | 492 kts | 258° |
| 2026-05-08 05:42 | 50.51759 | -4.73194 | 33999 ft | 491 kts | 258° |
| 2026-05-08 05:43 | 50.50254 | -4.83698 | 33996 ft | 491 kts | 258° |
| 2026-05-08 05:43 | 50.48753 | -4.94105 | 33992 ft | 490 kts | 258° |
| 2026-05-08 05:44 | 50.47236 | -5.04554 | 33989 ft | 489 kts | 258° |
| 2026-05-08 05:44 | 50.45715 | -5.14949 | 33991 ft | 489 kts | 258° |
| 2026-05-08 05:45 | 50.44191 | -5.25306 | 33990 ft | 488 kts | 258° |
| 2026-05-08 05:45 | 50.42657 | -5.35656 | 33991 ft | 487 kts | 258° |
| 2026-05-08 05:46 | 50.41114 | -5.46005 | 33989 ft | 487 kts | 258° |
| 2026-05-08 05:46 | 50.39569 | -5.56294 | 33985 ft | 486 kts | 258° |
| 2026-05-08 05:47 | 50.38012 | -5.66593 | 33982 ft | 486 kts | 258° |
| 2026-05-08 05:47 | 50.36437 | -5.76952 | 33981 ft | 485 kts | 258° |
| 2026-05-08 05:48 | 50.34867 | -5.87208 | 33980 ft | 485 kts | 258° |
| 2026-05-08 05:48 | 50.33286 | -5.97466 | 33981 ft | 485 kts | 258° |
| 2026-05-08 05:49 | 50.31706 | -6.07657 | 33982 ft | 484 kts | 258° |
| 2026-05-08 05:49 | 50.30113 | -6.17872 | 33981 ft | 484 kts | 258° |
| 2026-05-08 05:50 | 50.28511 | -6.28070 | 33981 ft | 484 kts | 258° |
| 2026-05-08 05:50 | 50.26894 | -6.38310 | 33980 ft | 484 kts | 257° |
| 2026-05-08 05:51 | 50.25273 | -6.48501 | 33980 ft | 483 kts | 257° |
| 2026-05-08 05:51 | 50.23649 | -6.58652 | 33980 ft | 483 kts | 257° |
| 2026-05-08 05:52 | 50.22008 | -6.68849 | 33980 ft | 483 kts | 257° |
| 2026-05-08 05:52 | 50.20366 | -6.78992 | 33979 ft | 482 kts | 257° |
| 2026-05-08 05:53 | 50.18716 | -6.89119 | 33981 ft | 481 kts | 257° |
| 2026-05-08 05:53 | 50.17060 | -6.99225 | 33981 ft | 481 kts | 257° |
| 2026-05-08 05:54 | 50.15396 | -7.09316 | 33980 ft | 480 kts | 257° |
| 2026-05-08 05:54 | 50.13729 | -7.19370 | 33980 ft | 479 kts | 256° |
| 2026-05-08 05:55 | 50.12058 | -7.29382 | 33982 ft | 479 kts | 256° |
| 2026-05-08 05:55 | 50.10369 | -7.39449 | 33980 ft | 478 kts | 256° |
| 2026-05-08 05:56 | 50.08682 | -7.49444 | 33978 ft | 477 kts | 256° |
| 2026-05-08 05:56 | 50.06988 | -7.59425 | 33972 ft | 477 kts | 256° |
| 2026-05-08 05:57 | 50.05279 | -7.69430 | 33968 ft | 476 kts | 256° |
| 2026-05-08 05:57 | 50.03569 | -7.79390 | 33978 ft | 476 kts | 256° |
| 2026-05-08 05:58 | 50.01864 | -7.89261 | 33979 ft | 476 kts | 256° |
| 2026-05-08 05:58 | 49.99820 | -7.99131 | 33985 ft | 477 kts | 246° |
| 2026-05-08 05:59 | 49.96273 | -8.07855 | 33978 ft | 480 kts | 235° |
| 2026-05-08 05:59 | 49.92285 | -8.16083 | 33981 ft | 480 kts | 234° |
| 2026-05-08 06:00 | 49.88241 | -8.24331 | 33982 ft | 480 kts | 234° |
| 2026-05-08 06:00 | 49.84204 | -8.32595 | 33981 ft | 480 kts | 234° |
| 2026-05-08 06:01 | 49.80179 | -8.40839 | 33981 ft | 480 kts | 234° |
| 2026-05-08 06:01 | 49.76156 | -8.49060 | 33979 ft | 480 kts | 234° |
| 2026-05-08 06:02 | 49.72104 | -8.57312 | 33983 ft | 480 kts | 234° |
| 2026-05-08 06:02 | 49.68072 | -8.65497 | 33988 ft | 480 kts | 234° |
| 2026-05-08 06:03 | 49.64027 | -8.73680 | 33995 ft | 480 kts | 234° |
| 2026-05-08 06:03 | 49.59960 | -8.81888 | 34000 ft | 480 kts | 233° |
| 2026-05-08 06:04 | 49.55908 | -8.90034 | 33999 ft | 480 kts | 233° |
| 2026-05-08 06:04 | 49.51824 | -8.98221 | 33998 ft | 480 kts | 233° |
| 2026-05-08 06:05 | 49.47766 | -9.06331 | 33991 ft | 480 kts | 232° |
| 2026-05-08 06:05 | 49.43674 | -9.14484 | 33989 ft | 480 kts | 232° |
| 2026-05-08 06:06 | 49.39595 | -9.22587 | 33989 ft | 480 kts | 232° |
| 2026-05-08 06:06 | 49.35525 | -9.30647 | 33990 ft | 480 kts | 232° |
| 2026-05-08 06:07 | 49.31413 | -9.38766 | 33989 ft | 480 kts | 232° |
| 2026-05-08 06:07 | 49.27307 | -9.46848 | 33991 ft | 480 kts | 232° |
| 2026-05-08 06:08 | 49.23205 | -9.54899 | 33990 ft | 480 kts | 232° |
| 2026-05-08 06:08 | 49.19078 | -9.62974 | 33990 ft | 480 kts | 232° |
| 2026-05-08 06:09 | 49.14988 | -9.70953 | 33989 ft | 480 kts | 232° |
| 2026-05-08 06:09 | 49.10859 | -9.78982 | 33989 ft | 480 kts | 232° |
| 2026-05-08 06:10 | 49.06739 | -9.86970 | 33989 ft | 480 kts | 232° |
| 2026-05-08 06:10 | 49.02594 | -9.94982 | 33991 ft | 480 kts | 231° |
| 2026-05-08 06:11 | 48.98460 | -10.02946 | 33989 ft | 480 kts | 231° |
| 2026-05-08 06:11 | 48.94209 | -10.10809 | 33988 ft | 481 kts | 230° |
| 2026-05-08 06:12 | 48.89919 | -10.18593 | 33991 ft | 480 kts | 230° |
| 2026-05-08 06:12 | 48.85639 | -10.26395 | 33991 ft | 481 kts | 230° |
| 2026-05-08 06:13 | 48.81358 | -10.34213 | 33990 ft | 481 kts | 230° |
| 2026-05-08 06:13 | 48.77112 | -10.41953 | 33986 ft | 480 kts | 230° |
| 2026-05-08 06:14 | 48.72649 | -10.49472 | 33979 ft | 480 kts | 221° |
| 2026-05-08 06:14 | 48.67284 | -10.55473 | 33973 ft | 480 kts | 214° |
| 2026-05-08 06:15 | 48.61712 | -10.61123 | 33966 ft | 481 kts | 214° |
| 2026-05-08 06:15 | 48.57065 | -10.65802 | 33968 ft | 481 kts | 214° |
| 2026-05-08 06:16 | 48.51522 | -10.71401 | 33966 ft | 481 kts | 214° |
| 2026-05-08 06:16 | 48.45941 | -10.77043 | 33952 ft | 481 kts | 214° |
| 2026-05-08 06:17 | 48.37607 | -10.85441 | 33953 ft | 481 kts | 214° |
| 2026-05-08 06:17 | 48.32047 | -10.91024 | 33938 ft | 481 kts | 214° |
| 2026-05-08 06:18 | 48.26470 | -10.96610 | 33944 ft | 481 kts | 214° |
| 2026-05-08 06:18 | 48.20892 | -11.02182 | 33934 ft | 481 kts | 213° |
| 2026-05-08 06:19 | 48.15310 | -11.07740 | 33935 ft | 481 kts | 213° |
| 2026-05-08 06:19 | 48.09753 | -11.13260 | 33933 ft | 481 kts | 213° |
| 2026-05-08 06:20 | 48.04156 | -11.18808 | 33935 ft | 481 kts | 213° |
| 2026-05-08 06:20 | 47.98612 | -11.24287 | 33933 ft | 481 kts | 213° |
| 2026-05-08 06:21 | 47.92991 | -11.29829 | 33931 ft | 482 kts | 213° |
| 2026-05-08 06:21 | 47.87439 | -11.35287 | 33927 ft | 482 kts | 213° |
| 2026-05-08 06:22 | 47.81835 | -11.40781 | 33924 ft | 482 kts | 213° |
| 2026-05-08 06:22 | 47.76202 | -11.46290 | 33925 ft | 482 kts | 213° |
| 2026-05-08 06:23 | 47.70638 | -11.51718 | 33925 ft | 482 kts | 213° |
| 2026-05-08 06:23 | 47.65009 | -11.57194 | 33925 ft | 482 kts | 213° |
| 2026-05-08 06:24 | 47.59419 | -11.62618 | 33920 ft | 482 kts | 213° |
| 2026-05-08 06:24 | 47.53777 | -11.68078 | 33916 ft | 482 kts | 213° |
| 2026-05-08 06:25 | 47.48197 | -11.73464 | 33916 ft | 482 kts | 213° |
| 2026-05-08 06:25 | 47.42598 | -11.78854 | 33916 ft | 482 kts | 213° |
| 2026-05-08 06:26 | 47.36968 | -11.84261 | 33916 ft | 482 kts | 213° |
| 2026-05-08 06:26 | 47.31333 | -11.89658 | 33915 ft | 482 kts | 212° |
| 2026-05-08 06:27 | 47.25670 | -11.95069 | 33915 ft | 482 kts | 212° |
| 2026-05-08 06:27 | 47.20071 | -12.00404 | 33911 ft | 483 kts | 212° |
| 2026-05-08 06:28 | 47.14428 | -12.05768 | 33910 ft | 483 kts | 212° |
| 2026-05-08 06:28 | 47.08746 | -12.11154 | 33910 ft | 483 kts | 212° |
| 2026-05-08 06:29 | 47.03127 | -12.16468 | 33908 ft | 484 kts | 212° |
| 2026-05-08 06:29 | 46.97488 | -12.21786 | 33903 ft | 484 kts | 212° |
| 2026-05-08 06:30 | 46.91811 | -12.27127 | 33903 ft | 484 kts | 212° |
| 2026-05-08 06:30 | 46.86136 | -12.32452 | 33903 ft | 484 kts | 212° |
| 2026-05-08 06:31 | 46.80462 | -12.37764 | 33895 ft | 484 kts | 212° |
| 2026-05-08 06:31 | 46.74746 | -12.43100 | 33895 ft | 484 kts | 212° |
| 2026-05-08 06:32 | 46.69110 | -12.48348 | 33894 ft | 485 kts | 211° |
| 2026-05-08 06:32 | 46.63412 | -12.53640 | 33898 ft | 485 kts | 211° |
| 2026-05-08 06:33 | 46.57736 | -12.58899 | 33898 ft | 485 kts | 211° |
| 2026-05-08 06:33 | 46.52031 | -12.64172 | 33899 ft | 485 kts | 211° |
| 2026-05-08 06:34 | 46.46334 | -12.69424 | 33899 ft | 485 kts | 211° |
| 2026-05-08 06:34 | 46.40657 | -12.74645 | 33888 ft | 485 kts | 211° |
| 2026-05-08 06:35 | 46.34954 | -12.79876 | 33893 ft | 485 kts | 211° |
| 2026-05-08 06:35 | 46.29248 | -12.85097 | 33885 ft | 485 kts | 211° |
| 2026-05-08 06:36 | 46.23563 | -12.90285 | 33894 ft | 485 kts | 211° |
| 2026-05-08 06:36 | 46.17809 | -12.95525 | 33885 ft | 485 kts | 211° |
| 2026-05-08 06:37 | 46.12100 | -13.00709 | 33888 ft | 485 kts | 211° |
| 2026-05-08 06:37 | 46.06399 | -13.05874 | 33884 ft | 485 kts | 211° |
| 2026-05-08 06:38 | 46.00700 | -13.11024 | 33885 ft | 485 kts | 211° |
| 2026-05-08 06:38 | 45.94986 | -13.16176 | 33886 ft | 485 kts | 210° |
| 2026-05-08 06:39 | 45.89278 | -13.21309 | 33886 ft | 486 kts | 210° |
| 2026-05-08 06:39 | 45.83517 | -13.26475 | 33885 ft | 486 kts | 210° |
| 2026-05-08 06:40 | 45.77809 | -13.31584 | 33882 ft | 486 kts | 210° |
| 2026-05-08 06:40 | 45.72070 | -13.36706 | 33878 ft | 485 kts | 210° |
| 2026-05-08 06:41 | 45.66312 | -13.41832 | 33878 ft | 485 kts | 210° |
| 2026-05-08 06:41 | 45.60615 | -13.46893 | 33878 ft | 485 kts | 210° |
| 2026-05-08 06:42 | 45.54859 | -13.51993 | 33878 ft | 485 kts | 210° |
| 2026-05-08 06:42 | 45.49126 | -13.57061 | 33880 ft | 485 kts | 210° |
| 2026-05-08 06:43 | 45.43404 | -13.62106 | 33886 ft | 486 kts | 210° |
| 2026-05-08 06:43 | 45.37604 | -13.67207 | 33888 ft | 486 kts | 210° |
| 2026-05-08 06:44 | 45.31898 | -13.72215 | 33893 ft | 486 kts | 210° |
| 2026-05-08 06:44 | 45.26141 | -13.77254 | 33904 ft | 486 kts | 210° |
| 2026-05-08 06:45 | 45.20391 | -13.82277 | 33898 ft | 486 kts | 210° |
| 2026-05-08 06:45 | 45.14630 | -13.87296 | 33897 ft | 486 kts | 209° |
| 2026-05-08 06:46 | 45.08867 | -13.92304 | 33894 ft | 487 kts | 209° |
| 2026-05-08 06:46 | 45.03082 | -13.97320 | 33896 ft | 487 kts | 209° |
| 2026-05-08 06:47 | 44.97132 | -14.01880 | 33899 ft | 485 kts | 203° |
| 2026-05-08 06:47 | 44.91024 | -14.05905 | 33893 ft | 485 kts | 202° |
| 2026-05-08 06:48 | 44.84869 | -14.09901 | 33900 ft | 486 kts | 202° |
| 2026-05-08 06:48 | 44.78750 | -14.13882 | 33893 ft | 486 kts | 202° |
| 2026-05-08 06:49 | 44.72603 | -14.17872 | 33900 ft | 486 kts | 202° |
| 2026-05-08 06:49 | 44.66473 | -14.21845 | 33901 ft | 486 kts | 202° |
| 2026-05-08 06:50 | 44.60302 | -14.25837 | 33892 ft | 486 kts | 202° |
| 2026-05-08 06:50 | 44.54176 | -14.29791 | 33892 ft | 487 kts | 202° |
| 2026-05-08 06:51 | 44.48013 | -14.33760 | 33892 ft | 487 kts | 202° |
| 2026-05-08 06:51 | 44.41847 | -14.37722 | 33900 ft | 487 kts | 202° |
| 2026-05-08 06:52 | 44.35696 | -14.41664 | 33896 ft | 487 kts | 202° |
| 2026-05-08 06:52 | 44.29577 | -14.45577 | 33898 ft | 487 kts | 202° |
| 2026-05-08 06:53 | 44.23363 | -14.49541 | 33894 ft | 487 kts | 202° |
| 2026-05-08 06:53 | 44.17191 | -14.53470 | 33896 ft | 487 kts | 202° |
| 2026-05-08 06:54 | 44.11045 | -14.57374 | 33900 ft | 487 kts | 202° |
| 2026-05-08 06:54 | 44.04849 | -14.61299 | 33897 ft | 487 kts | 202° |
| 2026-05-08 06:55 | 43.98704 | -14.65184 | 33899 ft | 487 kts | 202° |
| 2026-05-08 06:55 | 43.92496 | -14.69098 | 33895 ft | 488 kts | 202° |
| 2026-05-08 06:56 | 43.86355 | -14.72962 | 33900 ft | 489 kts | 202° |
| 2026-05-08 06:56 | 43.80119 | -14.76877 | 33891 ft | 489 kts | 202° |
| 2026-05-08 06:57 | 43.73909 | -14.80767 | 33885 ft | 489 kts | 202° |
| 2026-05-08 06:57 | 43.67712 | -14.84640 | 33882 ft | 489 kts | 202° |
| 2026-05-08 06:58 | 43.62546 | -14.87862 | 33876 ft | 490 kts | 202° |
| 2026-05-08 06:58 | 43.56327 | -14.91732 | 33870 ft | 490 kts | 202° |
| 2026-05-08 06:59 | 43.50134 | -14.95577 | 33864 ft | 490 kts | 202° |
| 2026-05-08 06:59 | 43.43910 | -14.99433 | 33860 ft | 490 kts | 202° |
| 2026-05-08 07:00 | 43.37682 | -15.03282 | 33860 ft | 490 kts | 202° |
| 2026-05-08 07:00 | 43.31454 | -15.07123 | 33860 ft | 491 kts | 202° |
| 2026-05-08 07:01 | 43.25271 | -15.10927 | 33860 ft | 491 kts | 202° |
| 2026-05-08 07:01 | 43.19033 | -15.14758 | 33860 ft | 491 kts | 202° |
| 2026-05-08 07:02 | 43.12794 | -15.18580 | 33860 ft | 491 kts | 202° |
| 2026-05-08 07:02 | 43.06573 | -15.22382 | 33860 ft | 491 kts | 202° |
| 2026-05-08 07:03 | 43.00317 | -15.26197 | 33860 ft | 491 kts | 202° |
| 2026-05-08 07:03 | 42.94081 | -15.29992 | 33860 ft | 492 kts | 202° |
| 2026-05-08 07:04 | 42.87807 | -15.33800 | 33860 ft | 492 kts | 202° |
| 2026-05-08 07:04 | 42.81558 | -15.37586 | 33860 ft | 492 kts | 202° |
| 2026-05-08 07:05 | 42.75335 | -15.41347 | 33859 ft | 492 kts | 202° |
| 2026-05-08 07:05 | 42.69039 | -15.45144 | 33860 ft | 493 kts | 202° |
| 2026-05-08 07:06 | 42.62799 | -15.48899 | 33860 ft | 493 kts | 202° |
| 2026-05-08 07:06 | 42.56488 | -15.52688 | 33860 ft | 494 kts | 202° |
| 2026-05-08 07:07 | 42.50221 | -15.56443 | 33860 ft | 494 kts | 202° |
| 2026-05-08 07:07 | 42.43896 | -15.60224 | 33860 ft | 494 kts | 202° |
| 2026-05-08 07:08 | 42.37643 | -15.63954 | 33860 ft | 495 kts | 202° |
| 2026-05-08 07:08 | 42.31336 | -15.67707 | 33859 ft | 495 kts | 202° |
| 2026-05-08 07:09 | 42.25027 | -15.71452 | 33860 ft | 495 kts | 202° |
| 2026-05-08 07:09 | 42.18683 | -15.75212 | 33860 ft | 495 kts | 202° |
| 2026-05-08 07:10 | 42.12403 | -15.78926 | 33860 ft | 496 kts | 202° |
| 2026-05-08 07:10 | 42.06077 | -15.82658 | 33860 ft | 496 kts | 202° |
| 2026-05-08 07:11 | 41.99754 | -15.86381 | 33860 ft | 496 kts | 202° |
| 2026-05-08 07:11 | 41.93440 | -15.90090 | 33860 ft | 497 kts | 202° |
| 2026-05-08 07:12 | 41.87114 | -15.93797 | 33860 ft | 497 kts | 202° |
| 2026-05-08 07:12 | 41.80764 | -15.97510 | 33863 ft | 497 kts | 202° |
| 2026-05-08 07:13 | 41.74419 | -16.01213 | 33869 ft | 497 kts | 202° |
| 2026-05-08 07:13 | 41.68070 | -16.04910 | 33875 ft | 497 kts | 202° |
| 2026-05-08 07:14 | 41.61720 | -16.08600 | 33880 ft | 497 kts | 202° |
| 2026-05-08 07:14 | 41.55387 | -16.12271 | 33889 ft | 497 kts | 202° |